createdAt,value
2018-05-03T00:01:50.029Z,101164.20
2018-05-03T00:04:16.880Z,101162.47
2018-05-03T00:06:43.771Z,101168.85
2018-05-03T00:09:10.607Z,101163.08
2018-05-03T00:11:37.486Z,101170.94
2018-05-03T00:14:04.332Z,101168.77
2018-05-03T00:16:31.271Z,101168.73
2018-05-03T00:18:58.119Z,101180.55
2018-05-03T00:21:24.977Z,101183.55
2018-05-03T00:23:51.864Z,101182.94
2018-05-03T00:26:19.451Z,101185.22
2018-05-03T00:28:46.436Z,101184.92
2018-05-03T00:31:13.308Z,101184.55
2018-05-03T00:33:40.187Z,101192.38
2018-05-03T00:36:07.077Z,101194.23
2018-05-03T00:38:33.927Z,101206.66
2018-05-03T00:41:00.934Z,101196.91
2018-05-03T00:43:27.776Z,101211.58
2018-05-03T00:45:54.620Z,101215.70
2018-05-03T00:48:21.521Z,101207.45
2018-05-03T00:50:49.166Z,101211.52
2018-05-03T00:53:16.417Z,101214.92
2018-05-03T00:55:43.261Z,101219.27
2018-05-03T00:58:10.987Z,101212.59
2018-05-03T01:00:37.984Z,101217.55
2018-05-03T01:03:04.852Z,101220.23
2018-05-03T01:05:32.442Z,101215.72
2018-05-03T01:07:59.384Z,101220.37
2018-05-03T01:10:26.258Z,101217.64
2018-05-03T01:12:53.150Z,101226.13
2018-05-03T01:15:20.750Z,101231.38
2018-05-03T01:17:47.590Z,101239.12
2018-05-03T01:20:14.544Z,101238.09
2018-05-03T01:22:41.381Z,101236.64
2018-05-03T01:25:08.555Z,101231.25
2018-05-03T01:27:35.417Z,101228.69
2018-05-03T01:30:02.325Z,101233.72
2018-05-03T01:32:29.200Z,101240.91
2018-05-03T01:35:14.278Z,101244.33
2018-05-03T01:37:41.172Z,101243.36
2018-05-03T01:40:08.015Z,101247.62
2018-05-03T01:42:34.895Z,101246.02
2018-05-03T01:45:01.738Z,101251.95
2018-05-03T01:47:28.627Z,101254.63
2018-05-03T01:49:56.242Z,101258.08
2018-05-03T01:52:23.095Z,101258.08
2018-05-03T01:54:49.979Z,101261.59
2018-05-03T01:57:17.583Z,101270.87
2018-05-03T01:59:44.506Z,101270.64
2018-05-03T02:02:11.701Z,101274.66
2018-05-03T02:04:38.563Z,101281.03
2018-05-03T02:07:05.455Z,101276.00
2018-05-03T02:09:32.387Z,101276.92
2018-05-03T02:11:59.232Z,101278.08
2018-05-03T02:14:26.115Z,101278.67
2018-05-03T02:16:52.969Z,101283.34
2018-05-03T02:19:19.869Z,101284.48
2018-05-03T02:21:46.713Z,101274.20
2018-05-03T02:24:13.567Z,101273.75
2018-05-03T02:26:40.450Z,101269.60
2018-05-03T02:29:07.300Z,101275.25
2018-05-03T02:31:34.205Z,101278.14
2018-05-03T02:34:01.088Z,101275.20
2018-05-03T02:36:28.000Z,101279.11
2018-05-03T02:38:54.891Z,101274.40
2018-05-03T02:41:21.765Z,101291.44
2018-05-03T02:43:49.398Z,101291.56
2018-05-03T02:46:16.276Z,101289.45
2018-05-03T02:48:43.864Z,101293.99
2018-05-03T02:51:10.760Z,101301.67
2018-05-03T02:53:38.349Z,101305.23
2018-05-03T02:56:05.228Z,101302.02
2018-05-03T03:01:57.758Z,101308.95
2018-05-03T03:04:48.947Z,101307.28
2018-05-03T03:14:40.699Z,101332.86
2018-05-03T03:17:32.945Z,101336.02
2018-05-03T03:20:21.901Z,101340.98
2018-05-03T03:23:13.247Z,101336.52
2018-05-03T03:29:29.268Z,101340.72
2018-05-03T03:38:35.057Z,101367.12
2018-05-03T03:41:20.236Z,101370.31
2018-05-03T03:44:05.428Z,101371.94
2018-05-03T03:46:33.028Z,101374.16
2018-05-03T03:48:59.888Z,101376.19
2018-05-03T03:51:28.533Z,101376.78
2018-05-03T03:53:55.384Z,101378.05
2018-05-03T03:56:22.261Z,101381.03
2018-05-03T03:58:49.155Z,101389.12
2018-05-03T04:01:16.827Z,101397.53
2018-05-03T04:03:43.791Z,101397.82
2018-05-03T04:06:10.675Z,101406.58
2018-05-03T04:08:37.568Z,101417.15
2018-05-03T04:11:05.188Z,101414.59
2018-05-03T04:13:32.256Z,101419.52
2018-05-03T04:15:59.109Z,101418.60
2018-05-03T04:18:44.224Z,101431.29
2018-05-03T04:21:29.299Z,101439.81
2018-05-03T04:24:15.361Z,101452.56
2018-05-03T04:26:42.996Z,101452.52
2018-05-03T04:29:09.878Z,101463.82
2018-05-03T04:31:36.730Z,101473.66
2018-05-03T04:34:03.603Z,101466.84
2018-05-03T04:36:30.493Z,101465.44
2018-05-03T04:38:58.101Z,101476.94
2018-05-03T04:41:25.375Z,101476.65
2018-05-03T04:43:52.236Z,101475.53
2018-05-03T04:46:19.085Z,101480.14
2018-05-03T04:48:45.967Z,101478.77
2018-05-03T04:51:12.871Z,101480.03
2018-05-03T04:53:39.715Z,101488.28
2018-05-03T04:56:06.570Z,101489.99
2018-05-03T04:58:33.513Z,101493.69
2018-05-03T05:01:00.744Z,101497.77
2018-05-03T05:03:27.603Z,101510.19
2018-05-03T05:05:54.449Z,101509.19
2018-05-03T05:08:21.342Z,101514.20
2018-05-03T05:10:48.191Z,101511.13
2018-05-03T05:13:15.036Z,101518.45
2018-05-03T05:15:41.981Z,101529.09
2018-05-03T05:18:08.835Z,101540.65
2018-05-03T05:20:35.685Z,101545.27
2018-05-03T05:23:02.573Z,101553.86
2018-05-03T05:25:29.468Z,101552.55
2018-05-03T05:27:56.360Z,101554.99
2018-05-03T05:30:23.205Z,101550.38
2018-05-03T05:32:50.444Z,101554.47
2018-05-03T05:35:17.308Z,101560.94
2018-05-03T05:37:44.162Z,101567.41
2018-05-03T05:40:11.859Z,101570.01
2018-05-03T05:42:38.786Z,101572.00
2018-05-03T05:45:06.374Z,101584.68
2018-05-03T05:47:33.552Z,101584.20
2018-05-03T05:50:00.392Z,101580.06
2018-05-03T05:52:27.244Z,101584.70
2018-05-03T05:54:54.143Z,101583.80
2018-05-03T05:57:21.033Z,101587.80
2018-05-03T05:59:47.875Z,101589.30
2018-05-03T06:02:14.765Z,101590.59
2018-05-03T06:04:41.665Z,101604.11
2018-05-03T06:07:08.524Z,101601.30
2018-05-03T06:09:35.408Z,101604.48
2018-05-03T06:12:02.297Z,101610.83
2018-05-03T06:14:29.155Z,101608.28
2018-05-03T06:16:56.045Z,101612.38
2018-05-03T06:19:22.887Z,101615.73
2018-05-03T06:21:50.528Z,101616.77
2018-05-03T06:24:18.135Z,101615.56
2018-05-03T06:26:44.979Z,101627.77
2018-05-03T06:29:11.894Z,101630.20
2018-05-03T06:31:39.515Z,101629.83
2018-05-03T06:34:06.361Z,101630.22
2018-05-03T06:36:33.276Z,101638.86
2018-05-03T06:39:00.134Z,101650.59
2018-05-03T06:41:26.993Z,101646.16
2018-05-03T06:43:53.905Z,101642.19
2018-05-03T06:46:20.759Z,101649.30
2018-05-03T06:48:47.683Z,101648.71
2018-05-03T06:51:14.537Z,101649.56
2018-05-03T06:53:41.722Z,101653.16
2018-05-03T06:56:08.568Z,101655.86
2018-05-03T06:58:35.582Z,101659.04
2018-05-03T07:01:02.454Z,101666.30
2018-05-03T07:03:29.321Z,101661.55
2018-05-03T07:05:56.476Z,101663.00
2018-05-03T07:08:23.324Z,101675.52
2018-05-03T07:10:50.228Z,101673.04
2018-05-03T07:13:17.112Z,101676.23
2018-05-03T07:15:43.992Z,101684.63
2018-05-03T07:18:10.966Z,101688.17
2018-05-03T07:20:37.865Z,101690.80
2018-05-03T07:23:05.456Z,101690.40
2018-05-03T07:25:32.380Z,101700.08
2018-05-03T07:27:59.965Z,101699.75
2018-05-03T07:30:26.865Z,101705.25
2018-05-03T07:32:53.745Z,101711.75
2018-05-03T07:35:20.648Z,101714.64
2018-05-03T07:37:47.984Z,101711.27
2018-05-03T07:40:14.836Z,101708.42
2018-05-03T07:42:41.673Z,101717.06
2018-05-03T07:45:08.621Z,101724.11
2018-05-03T07:47:36.249Z,101721.41
2018-05-03T07:50:03.213Z,101726.62
2018-05-03T07:52:30.058Z,101731.73
2018-05-03T07:54:56.961Z,101733.45
2018-05-03T07:57:24.554Z,101734.34
2018-05-03T07:59:51.411Z,101737.05
2018-05-03T08:02:18.363Z,101748.06
2018-05-03T08:04:45.208Z,101744.89
2018-05-03T08:07:12.052Z,101747.77
2018-05-03T08:09:39.075Z,101752.47
2018-05-03T08:12:05.915Z,101752.84
2018-05-03T08:14:32.829Z,101759.39
2018-05-03T08:16:59.768Z,101758.97
2018-05-03T08:19:26.647Z,101769.77
2018-05-03T08:21:54.232Z,101772.65
2018-05-03T08:24:21.133Z,101777.29
2018-05-03T08:26:48.764Z,101779.77
2018-05-03T08:29:15.604Z,101781.50
2018-05-03T08:31:42.505Z,101773.80
2018-05-03T08:34:09.340Z,101782.65
2018-05-03T08:36:37.237Z,101784.37
2018-05-03T08:39:04.931Z,101792.13
2018-05-03T08:41:31.776Z,101793.97
2018-05-03T08:43:58.705Z,101788.60
2018-05-03T08:46:25.611Z,101793.12
2018-05-03T08:48:52.501Z,101795.38
2018-05-03T08:51:19.337Z,101798.03
2018-05-03T08:53:46.179Z,101797.27
2018-05-03T08:56:13.093Z,101806.41
2018-05-03T08:58:39.991Z,101812.15
2018-05-03T09:01:06.932Z,101821.38
2018-05-03T09:03:33.789Z,101824.08
2018-05-03T09:06:00.664Z,101822.22
2018-05-03T09:08:28.302Z,101826.53
2018-05-03T09:10:55.159Z,101833.27
2018-05-03T09:13:22.063Z,101833.69
2018-05-03T09:15:48.920Z,101832.17
2018-05-03T09:18:15.993Z,101827.84
2018-05-03T09:20:43.014Z,101836.03
2018-05-03T09:23:09.900Z,101846.84
2018-05-03T09:25:37.556Z,101842.28
2018-05-03T09:28:04.412Z,101848.48
2018-05-03T09:30:32.004Z,101857.75
2018-05-03T09:32:59.131Z,101857.45
2018-05-03T09:35:26.715Z,101857.34
2018-05-03T09:37:53.599Z,101863.79
2018-05-03T09:40:20.499Z,101862.11
2018-05-03T09:42:47.339Z,101861.88
2018-05-03T09:45:14.547Z,101869.67
2018-05-03T09:47:41.445Z,101862.25
2018-05-03T09:50:08.289Z,101868.00
2018-05-03T09:52:35.445Z,101874.16
2018-05-03T09:55:02.274Z,101877.64
2018-05-03T09:57:29.139Z,101877.96
2018-05-03T09:59:56.037Z,101892.48
2018-05-03T10:02:22.922Z,101887.68
2018-05-03T10:04:49.986Z,101892.94
2018-05-03T10:07:16.779Z,101890.94
2018-05-03T10:09:44.372Z,101892.50
2018-05-03T10:12:11.280Z,101897.01
2018-05-03T10:14:38.925Z,101893.53
2018-05-03T10:17:05.780Z,101901.31
2018-05-03T10:19:32.671Z,101906.22
2018-05-03T10:21:59.577Z,101903.30
2018-05-03T10:24:26.431Z,101900.73
2018-05-03T10:26:53.323Z,101917.77
2018-05-03T10:29:20.211Z,101920.06
2018-05-03T10:31:47.064Z,101918.97
2018-05-03T10:34:14.701Z,101920.45
2018-05-03T10:36:41.543Z,101918.13
2018-05-03T10:39:08.477Z,101921.12
2018-05-03T10:41:35.324Z,101913.88
2018-05-03T10:44:02.190Z,101919.10
2018-05-03T10:46:29.090Z,101924.05
2018-05-03T10:48:55.983Z,101925.68
2018-05-03T10:51:22.879Z,101928.21
2018-05-03T10:53:49.736Z,101924.36
2018-05-03T10:56:16.571Z,101925.23
2018-05-03T10:58:43.591Z,101923.62
2018-05-03T11:01:11.200Z,101930.47
2018-05-03T11:03:38.407Z,101934.20
2018-05-03T11:06:06.039Z,101931.97
2018-05-03T11:08:32.900Z,101926.41
2018-05-03T11:11:00.554Z,101932.86
2018-05-03T11:13:27.412Z,101937.41
2018-05-03T11:15:55.059Z,101938.69
2018-05-03T11:18:21.908Z,101943.08
2018-05-03T11:20:48.750Z,101936.78
2018-05-03T11:23:15.668Z,101938.81
2018-05-03T11:25:42.520Z,101933.45
2018-05-03T11:28:09.367Z,101936.53
2018-05-03T11:30:36.291Z,101943.58
2018-05-03T11:33:03.152Z,101934.61
2018-05-03T11:35:30.037Z,101934.59
2018-05-03T11:37:57.629Z,101935.83
2018-05-03T11:40:25.433Z,101935.67
2018-05-03T11:42:52.513Z,101938.92
2018-05-03T11:45:20.104Z,101941.90
2018-05-03T11:47:47.137Z,101947.41
2018-05-03T11:50:14.040Z,101943.00
2018-05-03T11:52:40.877Z,101944.81
2018-05-03T11:55:07.785Z,101945.52
2018-05-03T11:57:34.641Z,101946.06
2018-05-03T12:00:01.499Z,101944.38
2018-05-03T12:02:28.419Z,101937.74
2018-05-03T12:04:55.363Z,101946.59
2018-05-03T12:07:22.245Z,101939.23
2018-05-03T12:09:49.146Z,101944.44
2018-05-03T12:12:15.999Z,101935.77
2018-05-03T12:14:53.572Z,101931.97
2018-05-03T12:17:21.168Z,101942.88
2018-05-03T12:19:49.176Z,101938.94
2018-05-03T12:22:17.755Z,101935.61
2018-05-03T12:24:44.996Z,101933.69
2018-05-03T12:27:12.727Z,101938.39
2018-05-03T12:29:40.992Z,101938.86
2018-05-03T12:32:09.134Z,101940.97
2018-05-03T12:34:36.161Z,101940.23
2018-05-03T12:37:03.061Z,101939.61
2018-05-03T12:39:30.653Z,101943.59
2018-05-03T12:41:57.584Z,101944.50
2018-05-03T12:44:24.473Z,101948.89
2018-05-03T12:46:51.320Z,101948.66
2018-05-03T12:49:18.320Z,101954.29
2018-05-03T12:51:45.244Z,101953.98
2018-05-03T12:54:12.074Z,101951.58
2018-05-03T12:56:38.954Z,101940.56
2018-05-03T12:59:05.855Z,101947.92
2018-05-03T13:01:32.750Z,101949.33
2018-05-03T13:03:59.605Z,101949.94
2018-05-03T13:06:26.479Z,101953.97
2018-05-03T13:08:53.377Z,101951.55
2018-05-03T13:11:20.300Z,101949.84
2018-05-03T13:13:48.120Z,101950.75
2018-05-03T13:16:15.003Z,101949.23
2018-05-03T13:18:41.887Z,101959.50
2018-05-03T13:21:08.719Z,101941.30
2018-05-03T13:23:35.656Z,101951.64
2018-05-03T13:26:03.264Z,101959.39
2018-05-03T13:28:30.125Z,101953.28
2018-05-03T13:30:57.030Z,101957.21
2018-05-03T13:33:23.990Z,101959.18
2018-05-03T13:35:51.120Z,101961.02
2018-05-03T13:38:17.987Z,101969.93
2018-05-03T13:40:44.871Z,101959.32
2018-05-03T13:43:11.794Z,101972.96
2018-05-03T13:45:38.770Z,101981.40
2018-05-03T13:48:05.701Z,101985.14
2018-05-03T13:50:32.594Z,101983.77
2018-05-03T13:52:59.443Z,101975.22
2018-05-03T13:55:26.677Z,101976.14
2018-05-03T13:57:53.483Z,101977.87
2018-05-03T14:00:20.320Z,101977.66
2018-05-03T14:02:47.220Z,101980.59
2018-05-03T14:05:14.858Z,101982.66
2018-05-03T14:07:41.695Z,101987.34
2018-05-03T14:10:08.537Z,101987.07
2018-05-03T14:12:35.411Z,101994.21
2018-05-03T14:15:02.300Z,101998.71
2018-05-03T14:17:29.223Z,101997.27
2018-05-03T14:19:56.119Z,102008.34
2018-05-03T14:22:23.005Z,102009.59
2018-05-03T14:24:49.938Z,102004.25
2018-05-03T14:27:17.597Z,102003.78
2018-05-03T14:29:45.163Z,102004.45
2018-05-03T14:32:12.802Z,102010.22
2018-05-03T14:34:40.036Z,102009.45
2018-05-03T14:37:06.885Z,102007.30
2018-05-03T14:39:33.727Z,102016.16
2018-05-03T14:42:00.601Z,102011.16
2018-05-03T14:44:27.481Z,102013.73
2018-05-03T14:46:54.336Z,102018.43
2018-05-03T14:49:21.215Z,102018.16
2018-05-03T14:51:48.057Z,102023.48
2018-05-03T14:54:14.933Z,102037.64
2018-05-03T14:56:42.535Z,102029.25
2018-05-03T14:59:09.476Z,102028.20
2018-05-03T15:01:36.317Z,102037.78
2018-05-03T15:04:03.214Z,102026.64
2018-05-03T15:06:30.142Z,102028.27
2018-05-03T15:08:56.981Z,102033.87
2018-05-03T15:11:23.833Z,102037.32
2018-05-03T15:13:51.289Z,102030.11
2018-05-03T15:16:18.271Z,102036.78
2018-05-03T15:18:45.032Z,102042.84
2018-05-03T15:21:12.181Z,102041.89
2018-05-03T15:23:39.659Z,102040.75
2018-05-03T15:26:07.352Z,102044.91
2018-05-03T15:28:35.017Z,102050.19
2018-05-03T15:31:01.878Z,102048.61
2018-05-03T15:33:28.805Z,102051.07
2018-05-03T15:35:55.686Z,102049.47
2018-05-03T15:38:22.523Z,102051.13
2018-05-03T15:40:50.104Z,102056.95
2018-05-03T15:43:17.159Z,102065.81
2018-05-03T15:45:43.993Z,102067.22
2018-05-03T15:48:11.627Z,102070.03
2018-05-03T15:50:38.475Z,102062.77
2018-05-03T15:53:05.356Z,102072.62
2018-05-03T15:55:32.199Z,102080.72
2018-05-03T15:57:59.048Z,102071.59
2018-05-03T16:00:25.944Z,102071.17
2018-05-03T16:02:52.852Z,102073.75
2018-05-03T16:05:19.699Z,102074.98
2018-05-03T16:07:46.879Z,102078.20
2018-05-03T16:10:13.728Z,102081.89
2018-05-03T16:12:40.571Z,102084.10
2018-05-03T16:15:07.463Z,102084.33
2018-05-03T16:17:34.384Z,102087.70
2018-05-03T16:20:01.220Z,102080.32
2018-05-03T16:22:28.092Z,102093.48
2018-05-03T16:24:54.941Z,102088.99
2018-05-03T16:27:21.889Z,102093.79
2018-05-03T16:29:49.067Z,102094.90
2018-05-03T16:32:15.927Z,102092.96
2018-05-03T16:34:42.812Z,102100.03
2018-05-03T16:37:10.456Z,102100.84
2018-05-03T16:39:37.349Z,102102.22
2018-05-03T16:42:04.278Z,102101.41
2018-05-03T16:44:31.178Z,102105.68
2018-05-03T16:46:58.063Z,102111.25
2018-05-03T16:49:25.741Z,102108.52
2018-05-03T16:51:53.312Z,102107.02
2018-05-03T16:54:20.153Z,102108.27
2018-05-03T16:56:47.056Z,102109.09
2018-05-03T16:59:13.941Z,102110.16
2018-05-03T17:01:40.827Z,102112.09
2018-05-03T17:04:07.677Z,102114.96
2018-05-03T17:06:34.585Z,102120.38
2018-05-03T17:09:01.480Z,102120.52
2018-05-03T17:11:28.315Z,102128.95
2018-05-03T17:13:55.452Z,102125.65
2018-05-03T17:16:22.295Z,102131.02
2018-05-03T17:18:49.139Z,102135.45
2018-05-03T17:21:16.790Z,102130.32
2018-05-03T17:23:43.728Z,102135.14
2018-05-03T17:26:10.563Z,102139.88
2018-05-03T17:28:37.411Z,102137.54
2018-05-03T17:31:04.326Z,102140.08
2018-05-03T17:33:31.277Z,102150.19
2018-05-03T17:35:58.940Z,102154.44
2018-05-03T17:38:26.560Z,102153.33
2018-05-03T17:40:53.872Z,102163.91
2018-05-03T17:43:20.710Z,102164.41
2018-05-03T17:45:47.551Z,102168.94
2018-05-03T17:48:14.448Z,102175.70
2018-05-03T17:50:41.344Z,102179.02
2018-05-03T17:53:08.187Z,102185.93
2018-05-03T17:55:35.807Z,102175.41
2018-05-03T17:58:02.680Z,102186.55
2018-05-03T18:00:30.312Z,102192.39
2018-05-03T18:02:57.165Z,102196.80
2018-05-03T18:05:24.019Z,102198.12
2018-05-03T18:07:50.910Z,102205.94
2018-05-03T18:10:17.787Z,102208.77
2018-05-03T18:12:44.628Z,102204.24
2018-05-03T18:15:11.885Z,102207.30
2018-05-03T18:17:38.723Z,102216.75
2018-05-03T18:20:05.568Z,102216.95
2018-05-03T18:22:32.435Z,102216.82
2018-05-03T18:24:59.271Z,102228.20
2018-05-03T18:27:26.155Z,102223.91
2018-05-03T18:29:53.776Z,102229.95
2018-05-03T18:32:20.661Z,102237.55
2018-05-03T18:34:48.293Z,102247.37
2018-05-03T18:37:15.484Z,102252.66
2018-05-03T18:39:42.355Z,102262.79
2018-05-03T18:42:09.194Z,102269.70
2018-05-03T18:44:36.368Z,102271.00
2018-05-03T18:47:03.239Z,102270.23
2018-05-03T18:49:30.144Z,102268.86
2018-05-03T18:51:57.769Z,102266.48
2018-05-03T18:54:25.499Z,102266.41
2018-05-03T18:56:52.400Z,102275.03
2018-05-03T18:59:19.293Z,102283.28
2018-05-03T19:01:46.186Z,102286.09
2018-05-03T19:04:13.023Z,102294.68
2018-05-03T19:06:40.216Z,102295.25
2018-05-03T19:09:07.048Z,102302.41
2018-05-03T19:11:33.940Z,102306.59
2018-05-03T19:14:00.858Z,102310.95
2018-05-03T19:16:27.760Z,102318.30
2018-05-03T19:18:54.604Z,102313.52
2018-05-03T19:21:21.488Z,102324.38
2018-05-03T19:23:48.433Z,102324.28
2018-05-03T19:26:15.253Z,102332.66
2018-05-03T19:28:42.153Z,102325.60
2018-05-03T19:31:09.736Z,102331.54
2018-05-03T19:33:36.572Z,102337.41
2018-05-03T19:36:04.216Z,102337.78
2018-05-03T19:38:31.054Z,102342.13
2018-05-03T19:40:58.086Z,102346.31
2018-05-03T19:43:24.988Z,102351.45
2018-05-03T19:45:51.877Z,102355.79
2018-05-03T19:48:18.767Z,102356.09
2018-05-03T19:50:46.382Z,102366.22
2018-05-03T19:53:13.244Z,102358.66
2018-05-03T19:55:40.157Z,102357.86
2018-05-03T19:58:07.057Z,102360.65
2018-05-03T20:00:34.704Z,102361.94
2018-05-03T20:03:01.649Z,102369.92
2018-05-03T20:05:28.496Z,102371.14
2018-05-03T20:07:56.092Z,102383.05
2018-05-03T20:10:22.979Z,102377.55
2018-05-03T20:12:49.839Z,102376.86
2018-05-03T20:15:16.778Z,102382.34
2018-05-03T20:17:43.717Z,102381.02
2018-05-03T20:20:11.589Z,102382.08
2018-05-03T20:22:38.458Z,102377.79
2018-05-03T20:25:06.043Z,102381.82
2018-05-03T20:27:32.973Z,102381.73
2018-05-03T20:30:00.583Z,102376.51
2018-05-03T20:32:27.484Z,102376.55
2018-05-03T20:34:54.639Z,102381.55
2018-05-03T20:37:21.484Z,102381.45
2018-05-03T20:39:49.075Z,102385.86
2018-05-03T20:42:16.012Z,102382.00
2018-05-03T20:44:42.876Z,102384.81
2018-05-03T20:47:09.746Z,102384.62
2018-05-03T20:49:36.657Z,102384.80
2018-05-03T20:52:03.549Z,102387.20
2018-05-03T20:54:31.159Z,102382.08
2018-05-03T20:56:58.039Z,102381.36
2018-05-03T20:59:24.970Z,102381.98
2018-05-03T21:01:51.874Z,102383.10
2018-05-03T21:04:19.469Z,102385.10
2018-05-03T21:06:46.310Z,102390.03
2018-05-03T21:09:13.212Z,102380.16
2018-05-03T21:11:40.813Z,102391.29
2018-05-03T21:14:07.707Z,102387.07
2018-05-03T21:16:34.607Z,102396.75
2018-05-03T21:19:01.480Z,102393.13
2018-05-03T21:21:28.372Z,102392.03
2018-05-03T21:23:55.231Z,102386.80
2018-05-03T21:26:22.097Z,102396.41
2018-05-03T21:28:48.995Z,102401.41
2018-05-03T21:31:16.626Z,102397.26
2018-05-03T21:33:43.542Z,102402.72
2018-05-03T21:36:10.471Z,102411.19
2018-05-03T21:38:37.359Z,102408.56
2018-05-03T21:41:04.199Z,102399.45
2018-05-03T21:43:31.617Z,102402.98
2018-05-03T21:45:58.827Z,102404.98
2018-05-03T21:48:26.451Z,102413.55
2018-05-03T21:50:53.500Z,102406.44
2018-05-03T21:53:20.393Z,102402.19
2018-05-03T21:55:47.245Z,102410.23
2018-05-03T21:58:14.915Z,102412.04
2018-05-03T22:00:42.523Z,102410.58
2018-05-03T22:03:09.404Z,102408.20
2018-05-03T22:05:36.340Z,102410.14
2018-05-03T22:08:03.265Z,102419.48
2018-05-03T22:10:30.189Z,102420.97
2018-05-03T22:12:57.049Z,102413.58
2018-05-03T22:15:23.891Z,102414.28
2018-05-03T22:17:50.816Z,102414.25
2018-05-03T22:20:17.675Z,102415.48
2018-05-03T22:22:44.560Z,102419.55
2018-05-03T22:25:11.416Z,102417.57
2018-05-03T22:27:38.306Z,102413.08
2018-05-03T22:30:05.148Z,102413.63
2018-05-03T22:32:31.985Z,102411.95
2018-05-03T22:34:58.885Z,102407.73
2018-05-03T22:37:25.825Z,102407.66
2018-05-03T22:39:52.679Z,102410.29
2018-05-03T22:42:19.570Z,102415.30
2018-05-03T22:44:46.416Z,102409.48
2018-05-03T22:47:13.295Z,102408.89
2018-05-03T22:49:40.168Z,102412.34
2018-05-03T22:52:07.041Z,102415.41
2018-05-03T22:54:33.931Z,102420.97
2018-05-03T22:57:00.772Z,102417.58
2018-05-03T22:59:27.664Z,102419.72
2018-05-03T23:01:55.538Z,102415.45
2018-05-03T23:04:22.420Z,102430.27
2018-05-03T23:06:49.316Z,102429.11
2018-05-03T23:09:16.913Z,102426.61
2018-05-03T23:11:43.812Z,102430.83
2018-05-03T23:14:11.513Z,102430.81
2018-05-03T23:16:38.389Z,102439.44
2018-05-03T23:19:05.239Z,102433.39
2018-05-03T23:21:32.206Z,102441.45
2018-05-03T23:23:59.035Z,102442.56
2018-05-03T23:26:25.904Z,102445.05
2018-05-03T23:28:53.523Z,102439.02
2018-05-03T23:31:20.395Z,102439.52
2018-05-03T23:33:47.316Z,102441.43
2018-05-03T23:36:14.159Z,102435.59
2018-05-03T23:38:41.100Z,102440.16
2018-05-03T23:41:07.990Z,102443.06
2018-05-03T23:43:35.575Z,102445.61
2018-05-03T23:46:06.699Z,102436.84
2018-05-03T23:48:34.288Z,102439.05
2018-05-03T23:51:01.145Z,102441.61
2018-05-03T23:53:28.790Z,102441.27
2018-05-03T23:55:55.643Z,102447.21
2018-05-03T23:58:22.535Z,102444.83
